createdAt,value
2024-04-25T00:02:53.359Z,97490.59
2024-04-25T00:07:55.271Z,97490.88
2024-04-25T00:12:59.744Z,97488.16
2024-04-25T00:18:01.521Z,97480.63
2024-04-25T00:23:03.302Z,97490.47
2024-04-25T00:28:08.011Z,97496.75
2024-04-25T00:33:10.067Z,97491.16
2024-04-25T00:38:11.990Z,97494.41
2024-04-25T00:43:16.562Z,97507.41
2024-04-25T00:48:19.111Z,97508.38
2024-04-25T00:53:20.963Z,97509.91
2024-04-25T00:58:27.683Z,97517.13
2024-04-25T01:03:29.901Z,97526.31
2024-04-25T01:08:33.591Z,97530.00
2024-04-25T01:13:38.083Z,97537.09
2024-04-25T01:18:40.014Z,97534.06
2024-04-25T01:23:44.154Z,97509.69
2024-04-25T01:28:49.609Z,97537.31
2024-04-25T01:33:52.587Z,97538.53
2024-04-25T01:38:54.669Z,97543.03
2024-04-25T01:43:59.351Z,97513.88
2024-04-25T01:49:01.628Z,97546.84
2024-04-25T01:54:03.550Z,97450.00
2024-04-25T01:59:08.085Z,97539.19
2024-04-25T02:04:10.534Z,97527.16
2024-04-25T02:09:12.452Z,97542.19
2024-04-25T02:14:16.937Z,97533.72
2024-04-25T02:19:18.814Z,97539.88
2024-04-25T02:24:32.514Z,97517.69
2024-04-25T02:29:37.016Z,97543.13
2024-04-25T02:34:39.291Z,97541.31
2024-04-25T02:39:41.311Z,97551.69
2024-04-25T02:44:46.020Z,97555.25
2024-04-25T02:49:47.744Z,97549.38
2024-04-25T02:54:51.198Z,97558.94
2024-04-25T02:59:55.734Z,97567.78
2024-04-25T03:04:57.601Z,97556.75
2024-04-25T03:09:59.514Z,97557.00
2024-04-25T03:15:04.171Z,97566.56
2024-04-25T03:20:06.073Z,97571.03
2024-04-25T03:25:09.734Z,97577.31
2024-04-25T03:30:15.299Z,97570.22
2024-04-25T03:35:17.557Z,97569.66
2024-04-25T03:40:19.598Z,97574.59
2024-04-25T03:45:24.013Z,97579.91
2024-04-25T03:50:26.670Z,97591.78
2024-04-25T03:55:28.488Z,97589.31
2024-04-25T04:00:33.312Z,97607.34
2024-04-25T04:05:35.101Z,97613.38
2024-04-25T04:10:37.644Z,97625.56
2024-04-25T04:15:43.338Z,97627.91
2024-04-25T04:20:48.680Z,97639.38
2024-04-25T04:25:50.952Z,97642.69
2024-04-25T04:30:55.642Z,97629.59
2024-04-25T04:35:58.198Z,97629.63
2024-04-25T04:41:00.093Z,97647.19
2024-04-25T04:46:05.674Z,97650.63
2024-04-25T04:51:07.592Z,97660.63
2024-04-25T04:56:11.391Z,97663.09
2024-04-25T05:01:16.006Z,97673.47
2024-04-25T05:06:18.627Z,97678.53
2024-04-25T05:11:20.527Z,97671.22
2024-04-25T05:16:25.127Z,97675.69
2024-04-25T05:21:28.394Z,97683.53
2024-04-25T05:26:30.291Z,97691.13
2024-04-25T05:31:35.240Z,97685.94
2024-04-25T05:36:38.499Z,97697.81
2024-04-25T05:41:40.235Z,97695.19
2024-04-25T05:46:44.660Z,97698.28
2024-04-25T05:51:45.891Z,97708.09
2024-04-25T05:56:47.682Z,97704.25
2024-04-25T06:01:52.120Z,97713.19
2024-04-25T06:06:53.359Z,97710.09
2024-04-25T06:11:55.278Z,97716.09
2024-04-25T06:17:00.030Z,97712.94
2024-04-25T06:22:03.944Z,97714.78
2024-04-25T06:27:06.064Z,97717.56
2024-04-25T06:32:24.179Z,97707.00
2024-04-25T06:37:27.527Z,97642.56
2024-04-25T06:42:29.754Z,97702.78
2024-04-25T06:47:34.507Z,97729.69
2024-04-25T06:52:36.335Z,97737.03
2024-04-25T06:57:38.098Z,97730.03
2024-04-25T07:02:42.757Z,97729.09
2024-04-25T07:07:44.552Z,97733.22
2024-04-25T07:12:46.328Z,97710.91
2024-04-25T07:17:51.412Z,97732.28
2024-04-25T07:22:53.238Z,97729.81
2024-04-25T07:27:55.023Z,97743.81
2024-04-25T07:32:59.754Z,97747.94
2024-04-25T07:38:02.874Z,97747.00
2024-04-25T07:43:04.667Z,97737.69
2024-04-25T07:48:09.791Z,97751.50
2024-04-25T07:53:11.754Z,97729.84
2024-04-25T07:58:13.620Z,97721.28
2024-04-25T08:03:19.177Z,97718.38
2024-04-25T08:08:24.876Z,97752.75
2024-04-25T08:13:28.042Z,97752.06
2024-04-25T08:18:32.671Z,97760.84
2024-04-25T08:23:34.522Z,97763.13
2024-04-25T08:28:36.771Z,97750.25
2024-04-25T08:33:41.518Z,97763.00
2024-04-25T08:38:44.871Z,97729.28
2024-04-25T08:43:47.422Z,97768.75
2024-04-25T08:48:51.417Z,97776.97
2024-04-25T08:53:54.396Z,97774.63
2024-04-25T08:58:56.145Z,97777.94
2024-04-25T09:04:01.805Z,97783.28
2024-04-25T09:09:03.566Z,97786.44
2024-04-25T09:14:05.293Z,97783.00
2024-04-25T09:19:09.775Z,97705.94
2024-04-25T09:24:12.645Z,97786.72
2024-04-25T09:29:14.641Z,97786.16
2024-04-25T09:34:19.530Z,97791.72
2024-04-25T09:39:22.082Z,97795.63
2024-04-25T09:44:25.745Z,97792.72
2024-04-25T09:49:33.487Z,97794.75
2024-04-25T09:54:41.859Z,97797.91
2024-04-25T09:59:49.946Z,97795.13
2024-04-25T10:04:56.120Z,97774.72
2024-04-25T10:09:59.240Z,97773.50
2024-04-25T10:15:02.955Z,97509.72
2024-04-25T10:20:11.227Z,97649.78
2024-04-25T10:25:17.398Z,97803.28
2024-04-25T10:30:19.860Z,97804.50
2024-04-25T10:35:24.839Z,97795.50
2024-04-25T10:40:30.239Z,97797.94
2024-04-25T10:45:33.161Z,97804.66
2024-04-25T10:50:38.400Z,97804.53
2024-04-25T10:55:40.452Z,97805.63
2024-04-25T11:00:45.777Z,97805.91
2024-04-25T11:05:50.349Z,97807.78
2024-04-25T11:10:52.330Z,97814.88
2024-04-25T11:16:00.699Z,97803.38
2024-04-25T11:21:06.452Z,97832.34
2024-04-25T11:26:08.860Z,97823.25
2024-04-25T11:31:11.642Z,97819.16
2024-04-25T11:36:27.685Z,97830.91
2024-04-25T11:41:31.509Z,97840.53
2024-04-25T11:46:34.304Z,97845.06
2024-04-25T11:51:38.772Z,97844.34
2024-04-25T11:56:40.505Z,97840.16
2024-04-25T12:01:42.398Z,97830.22
2024-04-25T12:06:47.854Z,97840.38
2024-04-25T12:11:52.853Z,97836.56
2024-04-25T12:16:57.138Z,97841.38
2024-04-25T12:22:01.600Z,97833.38
2024-04-25T12:27:03.330Z,97839.41
2024-04-25T12:32:06.071Z,97845.81
2024-04-25T12:37:11.264Z,97840.47
2024-04-25T12:42:13.767Z,97833.78
2024-04-25T12:47:15.811Z,97837.78
2024-04-25T12:52:20.423Z,97848.16
2024-04-25T12:57:25.353Z,97837.72
2024-04-25T13:02:30.247Z,97832.84
2024-04-25T13:07:35.060Z,97838.25
2024-04-25T13:12:37.285Z,97835.44
2024-04-25T13:17:39.680Z,97842.53
2024-04-25T13:22:47.572Z,97843.69
2024-04-25T13:27:49.531Z,97840.13
2024-04-25T13:32:52.613Z,97841.75
2024-04-25T13:38:00.203Z,97829.59
2024-04-25T13:43:04.007Z,97854.81
2024-04-25T13:48:07.151Z,97850.84
2024-04-25T13:53:13.384Z,97855.34
2024-04-25T13:58:15.159Z,97843.44
2024-04-25T14:03:17.179Z,97854.91
2024-04-25T14:08:21.766Z,97856.25
2024-04-25T14:13:23.739Z,97854.13
2024-04-25T14:18:27.275Z,97852.84
2024-04-25T14:23:31.908Z,97852.19
2024-04-25T14:28:54.252Z,97852.72
2024-04-25T14:33:56.227Z,97857.41
2024-04-25T14:39:00.908Z,97862.19
2024-04-25T14:44:10.325Z,97848.94
2024-04-25T14:49:12.905Z,97852.63
2024-04-25T14:54:17.332Z,97863.50
2024-04-25T14:59:19.450Z,97859.16
2024-04-25T15:04:21.172Z,97858.59
2024-04-25T15:09:25.650Z,97850.53
2024-04-25T15:14:27.364Z,97856.75
2024-04-25T15:19:29.309Z,97862.50
2024-04-25T15:24:33.888Z,97867.22
2024-04-25T15:29:35.809Z,97866.16
2024-04-25T15:34:37.628Z,97844.66
2024-04-25T15:39:42.776Z,97856.28
2024-04-25T15:44:44.663Z,97848.91
2024-04-25T15:49:46.482Z,97853.31
2024-04-25T15:54:50.935Z,97861.88
2024-04-25T15:59:53.073Z,97853.63
2024-04-25T16:04:54.805Z,97853.47
2024-04-25T16:09:59.515Z,97850.97
2024-04-25T16:15:01.371Z,97848.97
2024-04-25T16:20:03.255Z,97861.06
2024-04-25T16:25:08.192Z,97857.78
2024-04-25T16:30:11.560Z,97852.19
2024-04-25T16:35:13.299Z,97854.03
2024-04-25T16:40:18.073Z,97859.09
2024-04-25T16:45:20.261Z,97869.66
2024-04-25T16:50:22.628Z,97868.91
2024-04-25T16:55:27.146Z,97870.69
2024-04-25T17:00:28.964Z,97863.44
2024-04-25T17:05:30.750Z,97862.38
2024-04-25T17:10:35.359Z,97866.81
2024-04-25T17:15:37.212Z,97853.50
2024-04-25T17:20:39.094Z,97852.72
2024-04-25T17:25:43.697Z,97864.66
2024-04-25T17:30:45.558Z,97864.81
2024-04-25T17:35:47.364Z,97865.75
2024-04-25T17:40:51.935Z,97866.88
2024-04-25T17:45:53.847Z,97865.06
2024-04-25T17:50:55.577Z,97837.25
2024-04-25T17:56:00.101Z,97858.25
2024-04-25T18:01:01.966Z,97882.06
2024-04-25T18:06:05.607Z,97879.59
2024-04-25T18:11:11.323Z,97875.72
2024-04-25T18:16:12.999Z,97873.50
2024-04-25T18:21:14.791Z,97882.94
2024-04-25T18:26:19.114Z,97885.47
2024-04-25T18:31:29.001Z,97888.53
2024-04-25T18:36:30.906Z,97892.88
2024-04-25T18:41:35.994Z,97889.41
2024-04-25T18:46:38.422Z,97898.53
2024-04-25T18:51:41.315Z,97906.16
2024-04-25T18:56:45.787Z,97904.81
2024-04-25T19:01:47.570Z,97914.34
2024-04-25T19:06:50.768Z,97916.03
2024-04-25T19:11:55.260Z,97921.28
2024-04-25T19:16:57.970Z,97927.72
2024-04-25T19:21:59.828Z,97913.50
2024-04-25T19:27:04.345Z,97918.03
2024-04-25T19:32:05.746Z,97925.41
2024-04-25T19:37:07.694Z,97925.63
2024-04-25T19:42:15.600Z,97920.44
2024-04-25T19:47:17.888Z,97923.63
2024-04-25T19:52:19.893Z,97927.16
2024-04-25T19:57:25.072Z,97919.50
2024-04-25T20:02:31.290Z,97932.88
2024-04-25T20:07:33.384Z,97887.03
2024-04-25T20:12:37.891Z,97928.88
2024-04-25T20:17:55.211Z,97936.00
2024-04-25T20:22:57.180Z,97943.69
2024-04-25T20:28:02.824Z,97953.78
2024-04-25T20:33:04.728Z,97942.28
2024-04-25T20:38:06.559Z,97936.69
2024-04-25T20:43:11.128Z,97952.78
2024-04-25T20:48:13.464Z,97955.25
2024-04-25T20:53:16.695Z,97923.47
2024-04-25T20:58:21.313Z,97959.00
2024-04-25T21:03:24.136Z,97971.16
2024-04-25T21:08:25.986Z,97955.25
2024-04-25T21:13:31.639Z,97954.56
2024-04-25T21:18:33.720Z,97963.53
2024-04-25T21:23:35.761Z,97945.56
2024-04-25T21:28:40.416Z,97973.88
2024-04-25T21:33:42.533Z,97976.06
2024-04-25T21:38:44.775Z,97973.75
2024-04-25T21:43:49.561Z,97966.09
2024-04-25T21:48:53.257Z,97964.75
2024-04-25T21:53:56.362Z,97966.75
2024-04-25T21:59:00.989Z,97970.94
2024-04-25T22:04:02.719Z,97972.25
2024-04-25T22:09:04.691Z,97967.59
2024-04-25T22:14:09.284Z,97958.75
2024-04-25T22:19:11.272Z,97957.78
2024-04-25T22:24:13.309Z,97968.84
2024-04-25T22:29:17.826Z,97973.16
2024-04-25T22:34:19.695Z,97981.63
2024-04-25T22:39:21.566Z,97981.09
2024-04-25T22:44:26.272Z,97960.63
2024-04-25T22:49:28.276Z,97977.34
2024-04-25T22:54:30.161Z,97969.91
2024-04-25T22:59:34.859Z,97969.38
2024-04-25T23:04:36.780Z,97966.19
2024-04-25T23:09:38.916Z,97956.75
2024-04-25T23:14:43.525Z,97972.22
2024-04-25T23:19:48.582Z,97962.50
2024-04-25T23:24:50.418Z,97967.94
2024-04-25T23:29:55.141Z,97967.38
2024-04-25T23:34:57.034Z,97968.41
2024-04-25T23:40:00.574Z,97962.81
2024-04-25T23:45:05.341Z,97959.75
2024-04-25T23:50:07.709Z,97962.00
2024-04-25T23:55:10.164Z,97965.66
